LIRQLIRF

Guest
Details From LIRQ - Firenze
To LIRF - Roma Fiumicino Leonardo Da Vinci
Flight Number -
Tags decoded
Created
Modified
Stats Distance 137 nm / 254 km
Max Altitude 0 ft / 0 m
Waypoints 5
Social Downloads 1
Likes 0
Share VATSIM

Download

Looking for another format? Having issues loading an existing format? Contact us
Advertisement - Login to hide

Notes

Requested: LIRQ BOL CMP MIKSO LIRF

Route

LIRQ BOL CMP MIKSO LIRF

ID Type Via Altitude Latitude Longitude Leg Dist Tot Dist Heading (true) Name
O LIRQ APT - 0 ft / 0 m 43.80998˚ 11.20512˚ - 0 nm - Firenze
BOL VOR - 0 ft / 0 m 42.61833˚ 12.04861˚ 80 nm 80 nm 152° / 153° BOLSENA VORTAC
CMP NDB - 0 ft / 0 m 42.12500˚ 12.38028˚ 33 nm 113 nm 153° / 154° CAMPAGNANO NDB
MIKSO FIX - 0 ft / 0 m 42.02417˚ 12.18556˚ 10 nm 124 nm 235° / 235° -
O LIRF APT - 0 ft / 0 m 41.81081˚ 12.25090˚ 13 nm 137 nm 167° / 167° Roma Fiumicino Leonardo Da Vinci

Altitude Profile

Advertisement - Login to hide

LIRQ

Details ICAO LIRQ (FLR)
Name Firenze
Region Italy
Timezone Europe/Rome (UTC+1.0)
Stats Elevation 142 ft / 43 m (AMSL)
Location 43.809984° 11.205118°
Runways 1
Magnetic Variation 2.876° E

METAR

LIRQ 180820Z 00000KT CAVOK M01/M01 Q1024

Decode

TAF

TAF LIRQ 180500Z 1806/1906 03006KT 9999 SCT030= TAF LYNI 180500Z 1806/1906 33008KT 7000 BKN033 TX03/1813Z TNM03/1905Z TEMPO 1815/1822 5000 -SN BR BKN007 OVC015

Decode

Departure Runways

ID Width Length Bearing (true) Bearing (mag) Surface Threshold Offset Overrun Length
05 98 ft / 30 m 5,420 ft / 1,652 m 48.52° 45.64° Asphalt 492 ft / 150 m 0 ft / 0 m
23 98 ft / 30 m 5,420 ft / 1,652 m 228.53° 225.65° Asphalt 2,287 ft / 697 m 0 ft / 0 m

LIRF

Details ICAO LIRF (FCO)
Name Roma Fiumicino Leonardo Da Vinci
Region Italy
Timezone Europe/Rome (UTC+1.0)
Stats Elevation 15 ft / 5 m (AMSL)
Location 41.810809° 12.250897°
Runways 3
Magnetic Variation 2.996° E

METAR

LIRF 180820Z 04006KT CAVOK 06/M02 Q1023 NOSIG

Decode

TAF

TAF LIRF 180500Z 1806/1912 01008KT 9999 FEW030

Decode

Destination Runways

ID Width Length Bearing (true) Bearing (mag) Surface Threshold Offset Overrun Length
07 148 ft / 45 m 10,835 ft / 3,302 m 69.67° 66.67° Asphalt 1,365 ft / 416 m 0 ft / 0 m
16L 197 ft / 60 m 12,832 ft / 3,911 m 162.67° 159.67° Asphalt 0 ft / 0 m 0 ft / 0 m
16R 197 ft / 60 m 12,822 ft / 3,908 m 162.66° 159.66° Asphalt 0 ft / 0 m 0 ft / 0 m
25 148 ft / 45 m 10,835 ft / 3,302 m 249.70° 246.70° Asphalt 0 ft / 0 m 0 ft / 0 m
34L 197 ft / 60 m 12,822 ft / 3,908 m 342.67° 339.67° Asphalt 1,053 ft / 321 m 0 ft / 0 m
34R 197 ft / 60 m 12,832 ft / 3,911 m 342.68° 339.68° Asphalt 0 ft / 0 m 0 ft / 0 m

Approach Navaids

Runway Type Ident Frequency Range Bearing (true) Bearing (mag) Slope Elevation
16L Localiser FLL 108.10 MHz 18 nm / 33 km 162.69° 159.69° - 15 ft / 5 m (AMSL)
16L Glidescope FLL 108.10 MHz 10 nm / 19 km 162.68° 159.68° 3.00° 15 ft / 5 m (AMSL)
16R Localiser FRR 110.30 MHz 18 nm / 33 km 162.67° 159.67° - 15 ft / 5 m (AMSL)
16R Glidescope FRR 110.30 MHz 10 nm / 19 km 162.66° 159.67° 3.00° 15 ft / 5 m (AMSL)
25 Localiser FEE 110.15 MHz 18 nm / 33 km 249.67° 246.67° - 15 ft / 5 m (AMSL)
25 Glidescope FEE 110.15 MHz 10 nm / 19 km 249.68° 246.69° 3.00° 15 ft / 5 m (AMSL)
25 DME FEE 110.15 MHz 25 nm / 46 km - - - 25 ft / 8 m (AMSL)
34L Localiser ISW 108.90 MHz 18 nm / 33 km 342.66° 339.67° - 15 ft / 5 m (AMSL)
34L Glidescope ISW 108.90 MHz 10 nm / 19 km 342.66° 339.67° 3.00° 15 ft / 5 m (AMSL)
34L DME ISW 108.90 MHz 25 nm / 46 km - - - 15 ft / 5 m (AMSL)
34R Localiser FSS 111.55 MHz 18 nm / 33 km 342.67° 339.67° - 15 ft / 5 m (AMSL)
34R Glidescope FSS 111.55 MHz 10 nm / 19 km 342.68° 339.68° 3.00° 15 ft / 5 m (AMSL)
34R DME FSS 111.55 MHz 25 nm / 46 km - - - 15 ft / 5 m (AMSL)

Popular Alternatives